createdAt,value
2023-03-06T00:01:05.236Z,99976.16
2023-03-06T00:03:31.756Z,99972.75
2023-03-06T00:05:58.404Z,99980.31
2023-03-06T00:08:26.027Z,99960.09
2023-03-06T00:10:52.401Z,99963.44
2023-03-06T00:13:19.238Z,99970.91
2023-03-06T00:15:46.970Z,99958.28
2023-03-06T00:18:14.192Z,99961.47
2023-03-06T00:20:43.158Z,99951.44
2023-03-06T00:23:11.107Z,99948.06
2023-03-06T00:25:37.449Z,99944.53
2023-03-06T00:28:04.874Z,99938.53
2023-03-06T00:30:31.304Z,99945.06
2023-03-06T00:32:57.664Z,99940.91
2023-03-06T00:35:24.048Z,99939.22
2023-03-06T00:37:50.361Z,99940.94
2023-03-06T00:40:19.217Z,99927.59
2023-03-06T00:42:46.206Z,99935.16
2023-03-06T00:45:13.259Z,99920.03
2023-03-06T00:47:40.107Z,99916.72
2023-03-06T00:50:07.505Z,99911.59
2023-03-06T00:55:13.331Z,99901.38
2023-03-06T00:57:39.762Z,99896.28
2023-03-06T01:00:07.493Z,99893.06
2023-03-06T01:02:33.938Z,99893.88
2023-03-06T01:05:00.565Z,99883.78
2023-03-06T01:07:27.081Z,99878.59
2023-03-06T01:09:53.402Z,99872.66
2023-03-06T01:12:22.144Z,99867.34
2023-03-06T01:14:49.595Z,99873.22
2023-03-06T01:17:16.046Z,99863.94
2023-03-06T01:19:42.329Z,99862.34
2023-03-06T01:22:08.718Z,99849.03
2023-03-06T01:24:35.040Z,99835.31
2023-03-06T01:27:01.399Z,99843.78
2023-03-06T01:29:27.739Z,99835.47
2023-03-06T01:31:54.107Z,99833.75
2023-03-06T01:34:20.488Z,99825.25
2023-03-06T01:36:46.792Z,99814.28
2023-03-06T01:39:13.090Z,99812.50
2023-03-06T01:41:39.411Z,99809.13
2023-03-06T01:44:05.705Z,99799.16
2023-03-06T01:46:33.926Z,99804.94
2023-03-06T01:51:38.011Z,99789.00
2023-03-06T01:54:11.663Z,99779.72
2023-03-06T01:56:41.942Z,99783.97
2023-03-06T01:59:08.491Z,99775.69
2023-03-06T02:01:35.786Z,99769.94
2023-03-06T02:04:02.288Z,99773.31
2023-03-06T02:06:28.622Z,99772.50
2023-03-06T02:08:55.889Z,99767.59
2023-03-06T02:11:24.339Z,99764.22
2023-03-06T02:13:53.530Z,99763.41
2023-03-06T02:16:24.558Z,99756.91
2023-03-06T02:18:51.334Z,99753.56
2023-03-06T02:21:25.136Z,99750.91
2023-03-06T02:24:10.017Z,99754.31
2023-03-06T02:26:38.189Z,99753.63
2023-03-06T02:29:04.924Z,99750.16
2023-03-06T02:31:33.868Z,99751.06
2023-03-06T02:34:06.524Z,99755.19
2023-03-06T02:36:37.769Z,99740.97
2023-03-06T02:39:05.186Z,99736.72
2023-03-06T02:41:31.628Z,99730.00
2023-03-06T02:43:57.954Z,99736.88
2023-03-06T02:46:24.318Z,99732.69
2023-03-06T02:48:50.645Z,99721.81
2023-03-06T02:51:16.986Z,99728.50
2023-03-06T02:53:43.270Z,99726.00
2023-03-06T02:56:09.595Z,99716.00
2023-03-06T02:58:35.955Z,99713.50
2023-03-06T03:01:02.288Z,99712.75
2023-03-06T03:03:28.719Z,99711.06
2023-03-06T03:05:55.297Z,99712.75
2023-03-06T03:08:21.916Z,99711.19
2023-03-06T03:10:48.234Z,99712.06
2023-03-06T03:13:14.524Z,99705.34
2023-03-06T03:15:40.922Z,99703.84
2023-03-06T03:18:07.247Z,99692.78
2023-03-06T03:22:59.804Z,99701.38
2023-03-06T03:25:26.139Z,99696.28
2023-03-06T03:27:52.484Z,99702.19
2023-03-06T03:30:18.922Z,99693.88
2023-03-06T03:32:45.259Z,99696.53
2023-03-06T03:35:11.798Z,99691.53
2023-03-06T03:37:38.464Z,99685.66
2023-03-06T03:42:29.902Z,99685.75
2023-03-06T03:44:56.219Z,99691.78
2023-03-06T03:47:22.506Z,99684.22
2023-03-06T03:49:48.826Z,99688.44
2023-03-06T03:52:15.460Z,99686.78
2023-03-06T03:54:41.763Z,99680.94
2023-03-06T03:57:08.157Z,99687.81
2023-03-06T04:02:11.670Z,99681.31
2023-03-06T04:04:38.215Z,99681.38
2023-03-06T04:09:41.616Z,99687.19
2023-03-06T04:12:08.163Z,99683.94
2023-03-06T04:17:13.474Z,99681.53
2023-03-06T04:19:39.800Z,99686.75
2023-03-06T04:22:06.097Z,99687.72
2023-03-06T04:24:32.417Z,99690.94
2023-03-06T04:26:58.715Z,99695.16
2023-03-06T04:29:25.059Z,99689.31
2023-03-06T04:31:51.353Z,99693.41
2023-03-06T04:34:17.659Z,99704.28
2023-03-06T04:36:43.973Z,99697.34
2023-03-06T04:39:11.698Z,99701.47
2023-03-06T04:41:39.322Z,99706.44
2023-03-06T04:44:06.700Z,99698.75
2023-03-06T04:46:33.374Z,99696.03
2023-03-06T04:48:59.744Z,99709.41
2023-03-06T04:51:26.479Z,99711.78
2023-03-06T04:53:52.837Z,99714.34
2023-03-06T04:56:19.122Z,99720.25
2023-03-06T04:58:45.534Z,99715.13
2023-03-06T05:01:12.062Z,99716.72
2023-03-06T05:03:38.473Z,99718.47
2023-03-06T05:06:05.499Z,99711.06
2023-03-06T05:08:31.846Z,99714.28
2023-03-06T05:11:00.672Z,99717.66
2023-03-06T05:13:27.907Z,99715.00
2023-03-06T05:15:54.626Z,99713.28
2023-03-06T05:18:21.390Z,99720.03
2023-03-06T05:20:47.804Z,99723.19
2023-03-06T05:23:14.105Z,99722.22
2023-03-06T05:25:40.856Z,99719.91
2023-03-06T05:28:07.927Z,99725.53
2023-03-06T05:30:34.307Z,99729.63
2023-03-06T05:33:00.859Z,99726.41
2023-03-06T05:35:27.229Z,99742.38
2023-03-06T05:37:53.887Z,99729.50
2023-03-06T05:40:20.569Z,99728.59
2023-03-06T05:42:46.876Z,99733.84
2023-03-06T05:45:13.230Z,99727.72
2023-03-06T05:47:39.534Z,99741.22
2023-03-06T05:50:06.098Z,99735.41
2023-03-06T05:52:32.426Z,99734.56
2023-03-06T05:54:58.873Z,99733.41
2023-03-06T05:57:25.175Z,99741.25
2023-03-06T05:59:51.658Z,99736.78
2023-03-06T06:02:18.829Z,99744.31
2023-03-06T06:04:45.483Z,99739.94
2023-03-06T06:07:16.025Z,99740.22
2023-03-06T06:09:42.977Z,99742.66
2023-03-06T06:12:09.505Z,99742.59
2023-03-06T06:14:35.798Z,99740.09
2023-03-06T06:17:02.289Z,99743.78
2023-03-06T06:19:30.473Z,99744.31
2023-03-06T06:21:57.425Z,99747.59
2023-03-06T06:24:26.430Z,99743.47
2023-03-06T06:26:54.428Z,99751.78
2023-03-06T06:29:21.834Z,99750.38
2023-03-06T06:31:48.166Z,99742.59
2023-03-06T06:34:14.485Z,99754.47
2023-03-06T06:36:41.109Z,99752.72
2023-03-06T06:39:09.492Z,99756.34
2023-03-06T06:41:54.811Z,99755.16
2023-03-06T06:44:22.480Z,99761.06
2023-03-06T06:49:36.597Z,99755.16
2023-03-06T06:52:04.377Z,99763.38
2023-03-06T06:54:30.661Z,99761.09
2023-03-06T06:56:56.959Z,99763.63
2023-03-06T06:59:23.278Z,99756.81
2023-03-06T07:01:50.742Z,99760.91
2023-03-06T07:04:16.995Z,99763.63
2023-03-06T07:06:43.900Z,99763.56
2023-03-06T07:09:10.565Z,99766.03
2023-03-06T07:11:38.099Z,99767.75
2023-03-06T07:14:04.442Z,99767.56
2023-03-06T07:16:30.935Z,99765.03
2023-03-06T07:18:57.316Z,99761.91
2023-03-06T07:21:23.593Z,99766.91
2023-03-06T07:23:49.955Z,99765.09
2023-03-06T07:26:16.267Z,99759.34
2023-03-06T07:28:52.118Z,99764.38
2023-03-06T07:31:21.195Z,99760.28
2023-03-06T07:33:48.742Z,99772.19
2023-03-06T07:36:15.019Z,99770.41
2023-03-06T07:38:41.360Z,99765.78
2023-03-06T07:41:07.680Z,99771.59
2023-03-06T07:46:00.691Z,99769.03
2023-03-06T07:48:27.937Z,99773.34
2023-03-06T07:50:58.058Z,99765.84
2023-03-06T07:53:24.724Z,99772.50
2023-03-06T07:55:51.174Z,99767.19
2023-03-06T07:58:17.473Z,99774.97
2023-03-06T08:00:43.819Z,99770.69
2023-03-06T08:03:11.892Z,99774.06
2023-03-06T08:05:38.837Z,99775.09
2023-03-06T08:08:05.455Z,99774.25
2023-03-06T08:10:31.795Z,99768.66
2023-03-06T08:12:58.308Z,99773.84
2023-03-06T08:15:24.596Z,99775.56
2023-03-06T08:17:51.201Z,99774.59
2023-03-06T08:20:17.788Z,99772.09
2023-03-06T08:22:44.574Z,99769.44
2023-03-06T08:25:11.650Z,99773.94
2023-03-06T08:27:37.971Z,99775.84
2023-03-06T08:30:05.716Z,99779.50
2023-03-06T08:32:35.503Z,99777.94
2023-03-06T08:35:06.085Z,99780.25
2023-03-06T08:37:32.459Z,99779.41
2023-03-06T08:39:58.765Z,99772.91
2023-03-06T08:42:25.157Z,99787.66
2023-03-06T08:44:51.456Z,99785.25
2023-03-06T08:47:17.727Z,99786.41
2023-03-06T08:49:44.043Z,99781.13
2023-03-06T08:52:10.323Z,99778.84
2023-03-06T08:54:36.670Z,99783.03
2023-03-06T08:57:03.099Z,99780.09
2023-03-06T08:59:29.423Z,99776.25
2023-03-06T09:01:55.948Z,99787.09
2023-03-06T09:04:22.356Z,99783.72
2023-03-06T09:06:48.745Z,99791.47
2023-03-06T09:09:15.085Z,99787.97
2023-03-06T09:11:41.529Z,99791.38
2023-03-06T09:14:07.886Z,99792.16
2023-03-06T09:19:00.464Z,99792.66
2023-03-06T09:21:26.810Z,99787.69
2023-03-06T09:23:53.098Z,99792.97
2023-03-06T09:26:19.581Z,99803.13
2023-03-06T09:28:45.934Z,99793.03
2023-03-06T09:31:15.278Z,99795.66
2023-03-06T09:33:41.676Z,99789.81
2023-03-06T09:36:10.276Z,99788.00
2023-03-06T09:38:36.555Z,99787.16
2023-03-06T09:41:18.909Z,99789.69
2023-03-06T09:43:50.017Z,99797.25
2023-03-06T09:46:16.311Z,99798.91
2023-03-06T09:49:02.381Z,99795.53
2023-03-06T09:51:43.873Z,99791.22
2023-03-06T09:54:14.951Z,99796.16
2023-03-06T09:56:48.899Z,99795.06
2023-03-06T09:59:21.586Z,99798.47
2023-03-06T10:02:02.678Z,99798.72
2023-03-06T10:04:41.585Z,99799.81
2023-03-06T10:07:23.601Z,99789.88
2023-03-06T10:10:06.546Z,99791.59
2023-03-06T10:12:38.650Z,99794.97
2023-03-06T10:15:06.532Z,99795.72
2023-03-06T10:17:41.247Z,99788.22
2023-03-06T10:20:27.278Z,99795.31
2023-03-06T10:23:12.149Z,99792.28
2023-03-06T10:25:51.264Z,99800.03
2023-03-06T10:28:21.092Z,99792.50
2023-03-06T10:31:06.595Z,99795.56
2023-03-06T10:33:52.735Z,99799.78
2023-03-06T10:36:20.695Z,99795.59
2023-03-06T10:38:48.099Z,99793.91
2023-03-06T10:41:14.287Z,99796.44
2023-03-06T10:43:45.452Z,99791.59
2023-03-06T10:46:25.866Z,99788.50
2023-03-06T10:48:58.915Z,99796.84
2023-03-06T10:51:26.239Z,99789.31
2023-03-06T10:53:58.032Z,99789.91
2023-03-06T10:56:29.414Z,99790.91
2023-03-06T10:59:08.528Z,99793.63
2023-03-06T11:01:35.322Z,99790.31
2023-03-06T11:04:26.550Z,99791.19
2023-03-06T11:07:24.443Z,99793.63
2023-03-06T11:09:56.564Z,99793.53
2023-03-06T11:12:29.114Z,99790.50
2023-03-06T11:15:20.079Z,99794.66
2023-03-06T11:18:09.670Z,99784.56
2023-03-06T11:20:51.833Z,99783.66
2023-03-06T11:23:22.014Z,99787.97
2023-03-06T11:25:55.448Z,99786.34
2023-03-06T11:31:11.490Z,99782.72
2023-03-06T11:34:11.731Z,99774.59
2023-03-06T11:36:52.788Z,99785.44
2023-03-06T11:39:28.994Z,99776.06
2023-03-06T11:44:52.949Z,99782.97
2023-03-06T11:47:28.395Z,99776.94
2023-03-06T11:50:12.117Z,99766.88
2023-03-06T11:52:44.216Z,99765.53
2023-03-06T11:55:16.192Z,99769.75
2023-03-06T11:58:09.438Z,99763.91
2023-03-06T12:01:06.112Z,99759.03
2023-03-06T12:04:00.727Z,99765.00
2023-03-06T12:06:51.405Z,99761.91
2023-03-06T12:09:29.842Z,99761.47
2023-03-06T12:12:05.255Z,99755.63
2023-03-06T12:14:39.341Z,99755.59
2023-03-06T12:17:26.211Z,99748.00
2023-03-06T12:20:16.350Z,99756.56
2023-03-06T12:23:02.569Z,99759.22
2023-03-06T12:25:37.567Z,99759.31
2023-03-06T12:30:39.305Z,99754.06
2023-03-06T12:33:07.343Z,99757.50
2023-03-06T12:35:37.554Z,99755.88
2023-03-06T12:40:48.916Z,99749.78
2023-03-06T12:43:34.094Z,99752.06
2023-03-06T12:46:07.383Z,99750.59
2023-03-06T12:48:37.438Z,99752.81
2023-03-06T12:51:07.597Z,99745.47
2023-03-06T12:53:34.408Z,99747.38
2023-03-06T12:56:02.572Z,99759.34
2023-03-06T12:58:28.862Z,99749.13
2023-03-06T13:01:04.788Z,99749.41
2023-03-06T13:03:37.519Z,99743.53
2023-03-06T13:06:06.865Z,99745.44
2023-03-06T13:08:37.340Z,99748.19
2023-03-06T13:11:09.555Z,99750.81
2023-03-06T13:13:44.134Z,99746.38
2023-03-06T13:16:18.411Z,99743.03
2023-03-06T13:18:44.709Z,99738.13
2023-03-06T13:21:42.481Z,99739.91
2023-03-06T13:24:17.683Z,99733.09
2023-03-06T13:26:43.958Z,99732.56
2023-03-06T13:29:38.209Z,99731.22
2023-03-06T13:32:13.528Z,99730.28
2023-03-06T13:34:41.629Z,99732.72
2023-03-06T13:37:13.964Z,99725.16
2023-03-06T13:39:52.422Z,99723.59
2023-03-06T13:42:56.003Z,99719.56
2023-03-06T13:45:39.231Z,99725.59
2023-03-06T13:48:41.536Z,99722.34
2023-03-06T13:50:53.418Z,99717.53
2023-03-06T13:53:56.606Z,99720.78
2023-03-06T13:57:07.552Z,99715.22
2023-03-06T14:00:09.837Z,99722.13
2023-03-06T14:02:36.625Z,99722.34
2023-03-06T14:07:39.205Z,99722.38
2023-03-06T14:10:11.431Z,99717.78
2023-03-06T14:12:41.912Z,99723.47
2023-03-06T14:15:24.902Z,99721.03
2023-03-06T14:18:14.056Z,99721.66
2023-03-06T14:20:44.606Z,99728.09
2023-03-06T14:23:23.388Z,99717.78
2023-03-06T14:26:02.625Z,99716.03
2023-03-06T14:28:31.049Z,99716.34
2023-03-06T14:30:59.420Z,99719.75
2023-03-06T14:33:32.185Z,99713.59
2023-03-06T14:36:02.158Z,99707.59
2023-03-06T14:38:34.169Z,99719.22
2023-03-06T14:41:01.488Z,99711.88
2023-03-06T14:43:27.997Z,99713.47
2023-03-06T14:46:02.539Z,99708.63
2023-03-06T14:48:48.682Z,99709.59
2023-03-06T14:51:21.673Z,99714.72
2023-03-06T14:53:50.858Z,99713.09
2023-03-06T14:56:21.563Z,99711.41
2023-03-06T14:59:01.390Z,99717.03
2023-03-06T15:01:37.538Z,99712.88
2023-03-06T15:04:29.582Z,99716.66
2023-03-06T15:06:57.525Z,99712.41
2023-03-06T15:09:26.176Z,99710.75
2023-03-06T15:12:07.997Z,99707.28
2023-03-06T15:17:19.029Z,99712.34
2023-03-06T15:19:47.549Z,99714.00
2023-03-06T15:22:40.120Z,99713.97
2023-03-06T15:25:21.625Z,99708.94
2023-03-06T15:27:54.315Z,99708.88
2023-03-06T15:30:24.881Z,99719.91
2023-03-06T15:32:51.643Z,99714.00
2023-03-06T15:35:24.103Z,99716.22
2023-03-06T15:37:51.301Z,99713.69
2023-03-06T15:40:22.560Z,99712.06
2023-03-06T15:42:49.256Z,99717.13
2023-03-06T15:45:20.944Z,99711.00
2023-03-06T15:47:48.832Z,99708.41
2023-03-06T15:50:16.402Z,99698.28
2023-03-06T15:52:44.325Z,99707.47
2023-03-06T15:55:12.469Z,99706.59
2023-03-06T15:57:43.724Z,99703.25
2023-03-06T16:00:27.402Z,99704.88
2023-03-06T16:02:58.334Z,99707.34
2023-03-06T16:05:26.301Z,99707.16
2023-03-06T16:07:52.973Z,99710.50
2023-03-06T16:10:22.649Z,99711.09
2023-03-06T16:13:04.520Z,99703.44
2023-03-06T16:18:14.752Z,99698.94
2023-03-06T16:20:41.254Z,99698.94
2023-03-06T16:23:08.037Z,99693.78
2023-03-06T16:25:34.476Z,99691.09
2023-03-06T16:28:01.987Z,99693.41
2023-03-06T16:30:33.993Z,99695.88
2023-03-06T16:33:00.781Z,99693.16
2023-03-06T16:35:27.870Z,99698.81
2023-03-06T16:37:54.174Z,99696.13
2023-03-06T16:40:26.586Z,99699.34
2023-03-06T16:42:55.073Z,99694.22
2023-03-06T16:45:22.633Z,99698.16
2023-03-06T16:47:49.063Z,99702.13
2023-03-06T16:50:30.905Z,99701.91
2023-03-06T16:52:58.404Z,99705.94
2023-03-06T16:55:26.558Z,99710.84
2023-03-06T16:57:54.059Z,99716.31
2023-03-06T17:00:21.860Z,99708.63
2023-03-06T17:02:48.908Z,99705.84
2023-03-06T17:05:15.386Z,99715.78
2023-03-06T17:07:41.710Z,99711.41
2023-03-06T17:10:11.097Z,99722.22
2023-03-06T17:12:37.572Z,99715.56
2023-03-06T17:17:42.780Z,99725.63
2023-03-06T17:20:11.427Z,99722.25
2023-03-06T17:22:40.831Z,99729.69
2023-03-06T17:25:08.752Z,99737.19
2023-03-06T17:27:36.310Z,99742.09
2023-03-06T17:30:04.249Z,99739.41
2023-03-06T17:32:30.639Z,99743.72
2023-03-06T17:34:56.964Z,99741.88
2023-03-06T17:37:23.350Z,99745.16
2023-03-06T17:39:50.489Z,99743.25
2023-03-06T17:42:16.876Z,99750.78
2023-03-06T17:44:43.245Z,99748.06
2023-03-06T17:47:09.540Z,99758.97
2023-03-06T17:49:35.898Z,99746.34
2023-03-06T17:52:02.200Z,99750.56
2023-03-06T17:54:28.755Z,99750.53
2023-03-06T17:56:55.328Z,99751.38
2023-03-06T17:59:21.669Z,99751.38
2023-03-06T18:01:48.011Z,99751.28
2023-03-06T18:04:14.370Z,99757.94
2023-03-06T18:06:40.697Z,99757.88
2023-03-06T18:09:08.150Z,99754.44
2023-03-06T18:11:34.342Z,99751.88
2023-03-06T18:14:00.643Z,99755.22
2023-03-06T18:16:27.044Z,99761.09
2023-03-06T18:18:56.290Z,99755.16
2023-03-06T18:21:24.049Z,99754.19
2023-03-06T18:23:50.433Z,99756.59
2023-03-06T18:26:21.050Z,99753.22
2023-03-06T18:28:51.572Z,99756.50
2023-03-06T18:31:21.126Z,99748.06
2023-03-06T18:33:48.452Z,99753.88
2023-03-06T18:36:15.826Z,99753.94
2023-03-06T18:38:42.207Z,99754.63
2023-03-06T18:41:08.565Z,99752.88
2023-03-06T18:43:36.061Z,99753.69
2023-03-06T18:46:02.322Z,99754.41
2023-03-06T18:48:29.105Z,99758.59
2023-03-06T18:50:55.717Z,99750.16
2023-03-06T18:53:22.542Z,99751.66
2023-03-06T18:55:53.180Z,99750.72
2023-03-06T18:58:20.392Z,99752.34
2023-03-06T19:00:47.042Z,99757.22
2023-03-06T19:03:13.836Z,99760.53
2023-03-06T19:05:45.611Z,99757.97
2023-03-06T19:08:12.004Z,99749.41
2023-03-06T19:10:40.645Z,99760.25
2023-03-06T19:13:07.801Z,99755.13
2023-03-06T19:15:34.356Z,99760.09
2023-03-06T19:18:00.723Z,99760.78
2023-03-06T19:20:27.160Z,99754.78
2023-03-06T19:22:53.508Z,99758.91
2023-03-06T19:25:20.147Z,99763.81
2023-03-06T19:27:46.431Z,99753.78
2023-03-06T19:30:14.637Z,99755.34
2023-03-06T19:32:44.687Z,99753.59
2023-03-06T19:35:11.913Z,99756.81
2023-03-06T19:37:38.222Z,99749.25
2023-03-06T19:40:05.406Z,99752.56
2023-03-06T19:42:32.200Z,99746.63
2023-03-06T19:45:01.673Z,99749.22
2023-03-06T19:47:28.079Z,99750.00
2023-03-06T19:49:54.394Z,99742.41
2023-03-06T19:52:20.829Z,99745.75
2023-03-06T19:54:47.103Z,99744.06
2023-03-06T19:57:14.010Z,99741.44
2023-03-06T19:59:40.321Z,99740.56
2023-03-06T20:02:06.701Z,99738.00
2023-03-06T20:04:34.327Z,99736.22
2023-03-06T20:07:00.766Z,99732.81
2023-03-06T20:09:27.243Z,99737.72
2023-03-06T20:11:53.554Z,99739.44
2023-03-06T20:14:19.855Z,99733.44
2023-03-06T20:16:46.147Z,99734.16
2023-03-06T20:19:12.465Z,99725.72
2023-03-06T20:21:38.800Z,99729.84
2023-03-06T20:24:07.220Z,99734.75
2023-03-06T20:26:33.587Z,99732.19
2023-03-06T20:29:00.223Z,99731.19
2023-03-06T20:31:29.292Z,99731.16
2023-03-06T20:33:58.027Z,99728.56
2023-03-06T20:36:36.493Z,99735.19
2023-03-06T20:39:05.540Z,99730.94
2023-03-06T20:41:32.830Z,99729.13
2023-03-06T20:44:00.833Z,99724.06
2023-03-06T20:46:27.470Z,99725.72
2023-03-06T20:48:54.135Z,99723.13
2023-03-06T20:51:32.559Z,99723.94
2023-03-06T20:54:00.966Z,99713.91
2023-03-06T20:56:30.073Z,99709.72
2023-03-06T20:58:56.680Z,99702.13
2023-03-06T21:01:23.069Z,99704.69
2023-03-06T21:03:50.186Z,99698.69
2023-03-06T21:06:16.766Z,99697.91
2023-03-06T21:08:43.734Z,99704.56
2023-03-06T21:11:10.196Z,99705.31
2023-03-06T21:13:36.533Z,99690.91
2023-03-06T21:16:07.979Z,99689.09
2023-03-06T21:18:34.370Z,99687.38
2023-03-06T21:21:08.410Z,99682.16
2023-03-06T21:23:34.876Z,99683.06
2023-03-06T21:26:01.268Z,99689.69
2023-03-06T21:28:27.727Z,99679.59
2023-03-06T21:30:54.082Z,99678.75
2023-03-06T21:33:20.409Z,99672.03
2023-03-06T21:35:50.361Z,99668.59
2023-03-06T21:38:16.646Z,99669.41
2023-03-06T21:40:43.972Z,99659.22
2023-03-06T21:43:10.283Z,99659.22
2023-03-06T21:45:36.644Z,99662.53
2023-03-06T21:48:03.638Z,99654.03
2023-03-06T21:50:29.948Z,99653.06
2023-03-06T21:52:56.585Z,99656.53
2023-03-06T21:55:23.178Z,99653.13
2023-03-06T21:57:53.680Z,99654.84
2023-03-06T22:00:21.194Z,99656.44
2023-03-06T22:02:47.491Z,99648.91
2023-03-06T22:05:13.950Z,99654.78
2023-03-06T22:07:40.368Z,99653.97
2023-03-06T22:10:07.453Z,99651.41
2023-03-06T22:12:34.187Z,99658.84
2023-03-06T22:15:00.621Z,99650.47
2023-03-06T22:17:26.913Z,99643.81
2023-03-06T22:19:53.224Z,99643.81
2023-03-06T22:22:19.569Z,99642.84
2023-03-06T22:24:47.651Z,99638.63
2023-03-06T22:27:15.073Z,99635.25
2023-03-06T22:29:41.587Z,99632.69
2023-03-06T22:32:08.515Z,99633.50
2023-03-06T22:34:34.970Z,99624.28
2023-03-06T22:37:01.307Z,99618.41
2023-03-06T22:39:27.651Z,99624.22
2023-03-06T22:41:57.167Z,99614.94
2023-03-06T22:44:23.831Z,99616.53
2023-03-06T22:46:50.280Z,99612.16
2023-03-06T22:49:16.562Z,99608.75
2023-03-06T22:51:43.502Z,99600.31
2023-03-06T22:54:10.904Z,99609.59
2023-03-06T22:56:37.235Z,99594.56
2023-03-06T22:59:03.865Z,99597.00
2023-03-06T23:01:32.666Z,99594.44
2023-03-06T23:04:03.917Z,99590.94
2023-03-06T23:06:39.445Z,99586.66
2023-03-06T23:09:09.284Z,99584.97
2023-03-06T23:11:35.626Z,99568.81
2023-03-06T23:14:02.139Z,99572.91
2023-03-06T23:16:28.476Z,99565.94
2023-03-06T23:18:54.788Z,99567.66
2023-03-06T23:21:22.658Z,99562.56
2023-03-06T23:23:51.078Z,99550.09
2023-03-06T23:26:19.048Z,99552.53
2023-03-06T23:28:45.523Z,99559.03
2023-03-06T23:31:18.103Z,99559.78
2023-03-06T23:33:44.580Z,99558.84
2023-03-06T23:36:14.087Z,99557.97
2023-03-06T23:38:40.630Z,99558.72
2023-03-06T23:41:10.735Z,99556.22
2023-03-06T23:43:37.369Z,99547.78
2023-03-06T23:46:04.766Z,99555.88
2023-03-06T23:48:31.152Z,99549.28
2023-03-06T23:50:57.712Z,99545.06
2023-03-06T23:53:24.458Z,99549.22
2023-03-06T23:55:52.410Z,99547.63
2023-03-06T23:58:20.348Z,99540.16
